Time;durP1;ratioP1;P1;durP2;ratioP2;P2;SDS_P1;SDS_P2;PMS_P1;PMS_P2;Temp;Humidity;BMP_temperature;BMP_pressure;BME280_temperature;BME280_humidity;BME280_pressure;Samples;Min_cycle;Max_cycle;Signal;HPM_P1;HPM_P2
2022/04/04 00:00:26;;;;;;;16.65;12.73;;;7.10;99.90;;;7.53;74.97;101682.50;5072258;28;20044;-62
2022/04/04 00:02:54;;;;;;;20.25;12.93;;;7.20;99.90;;;7.54;74.98;101678.13;5072280;28;20047;-62
2022/04/04 00:05:24;;;;;;;15.80;12.75;;;7.20;99.90;;;7.42;74.94;101641.94;5072181;28;20363;-62
2022/04/04 00:07:53;;;;;;;19.55;12.13;;;7.20;99.90;;;7.55;74.94;101672.91;5072414;28;20071;-62
2022/04/04 00:10:21;;;;;;;17.42;12.25;;;7.30;99.90;;;7.54;75.04;101660.63;5072248;28;20528;-62
2022/04/04 00:12:50;;;;;;;17.70;12.25;;;7.20;99.90;;;7.48;75.70;101664.84;5072329;28;20064;-62
2022/04/04 00:15:18;;;;;;;20.23;12.63;;;7.20;99.90;;;7.44;75.92;101656.00;5072345;28;20079;-62
2022/04/04 00:17:46;;;;;;;17.48;11.85;;;7.20;99.90;;;7.39;76.04;101652.41;5072074;28;20057;-62
2022/04/04 00:20:15;;;;;;;16.35;11.43;;;7.10;99.90;;;7.46;76.12;101643.78;5070766;28;20445;-62
2022/04/04 00:22:45;;;;;;;17.98;11.73;;;7.10;99.90;;;7.48;76.02;101639.44;5072496;28;20068;-62
2022/04/04 00:25:14;;;;;;;14.80;10.60;;;7.20;99.90;;;7.49;76.12;101635.06;5072342;28;20037;-62
2022/04/04 00:27:42;;;;;;;22.77;12.57;;;7.20;99.90;;;7.52;76.11;101629.84;5072675;28;20048;-62
2022/04/04 00:30:11;;;;;;;17.67;10.65;;;7.20;99.90;;;7.55;76.41;101635.19;5070701;28;20053;-62
2022/04/04 00:32:39;;;;;;;14.82;10.25;;;7.20;99.90;;;7.42;76.50;101607.72;5071906;28;20227;-62
2022/04/04 00:35:09;;;;;;;19.08;11.05;;;7.20;99.90;;;7.55;76.47;101622.88;5072082;28;20037;-62
2022/04/04 00:37:38;;;;;;;16.55;11.02;;;7.20;99.90;;;7.57;76.56;101622.94;5071947;28;20186;-62
2022/04/04 00:40:09;;;;;;;13.75;10.80;;;7.20;99.90;;;7.51;76.71;101607.88;5071959;28;20045;-62
2022/04/04 00:42:39;;;;;;;16.33;11.27;;;7.30;99.90;;;7.50;76.91;101607.88;5072184;28;20059;-62
2022/04/04 00:45:09;;;;;;;16.75;11.35;;;7.20;99.90;;;7.49;77.40;101608.75;5071853;28;20111;-62
2022/04/04 00:47:37;;;;;;;16.65;10.90;;;7.20;99.90;;;7.47;78.04;101606.06;5087444;28;20048;-62
2022/04/04 00:50:07;;;;;;;18.55;10.98;;;7.20;99.90;;;7.52;77.93;101600.88;5071606;28;20114;-62
2022/04/04 00:52:36;;;;;;;17.88;11.07;;;7.20;99.90;;;7.44;78.61;101595.47;5071563;28;20056;-62
2022/04/04 00:55:07;;;;;;;20.52;11.55;;;7.20;99.90;;;7.46;78.97;101592.88;5072737;28;20113;-62
2022/04/04 00:57:37;;;;;;;15.80;11.57;;;7.20;99.90;;;7.46;79.44;101591.13;5075447;28;20049;-62
2022/04/04 01:00:11;;;;;;;20.33;12.25;;;7.20;99.90;;;7.39;79.46;101588.34;5075908;28;20056;-62
2022/04/04 01:02:40;;;;;;;16.65;11.07;;;7.10;99.90;;;7.43;80.12;101572.66;5075342;28;20055;-62
2022/04/04 01:05:10;;;;;;;19.02;12.40;;;7.10;99.90;;;7.45;79.94;101568.31;5075259;28;20482;-62
2022/04/04 01:07:40;;;;;;;19.67;11.52;;;7.20;99.90;;;7.47;80.28;101565.72;5075743;28;20053;-62
2022/04/04 01:10:10;;;;;;;20.58;12.07;;;7.20;99.90;;;7.48;80.43;101563.09;5075593;28;20382;-61
2022/04/04 01:12:50;;;;;;;21.92;13.55;;;7.20;99.90;;;7.47;80.83;101558.69;5075678;28;20095;-62
2022/04/04 01:15:19;;;;;;;24.47;12.10;;;7.20;99.90;;;7.51;80.59;101544.72;5075500;28;20059;-62
2022/04/04 01:17:47;;;;;;;19.15;12.95;;;7.20;99.90;;;7.49;81.11;101546.44;5075137;28;20302;-62
2022/04/04 01:20:17;;;;;;;21.38;12.25;;;7.20;99.90;;;7.49;81.01;101543.81;5076065;28;20044;-68
2022/04/04 01:22:50;;;;;;;20.02;13.68;;;7.20;99.90;;;7.46;81.34;101545.50;5076204;28;20068;-68
2022/04/04 01:25:27;;;;;;;16.58;12.93;;;7.20;99.90;;;7.46;81.34;101532.34;5076463;28;20375;-67
2022/04/04 01:27:57;;;;;;;24.25;14.20;;;7.20;99.90;;;7.51;81.28;101533.31;5076368;28;20037;-68
2022/04/04 01:30:29;;;;;;;29.65;15.75;;;7.20;99.90;;;7.54;80.72;101515.84;5075148;28;20409;-68
2022/04/04 01:32:59;;;;;;;22.52;15.18;;;7.20;99.90;;;7.49;81.03;101514.00;5076400;28;20040;-67
2022/04/04 01:35:28;;;;;;;22.92;14.93;;;7.20;99.90;;;7.51;80.83;101505.22;5076247;28;20135;-68
2022/04/04 01:37:57;;;;;;;23.73;16.08;;;7.30;99.90;;;7.57;80.67;101500.09;5076189;28;20064;-67
2022/04/04 01:40:27;;;;;;;26.30;15.82;;;7.30;99.90;;;7.51;80.65;101499.97;5076461;28;20036;-67
2022/04/04 01:42:56;;;;;;;28.00;16.00;;;7.30;99.90;;;7.60;80.53;101496.63;5075928;28;20445;-67
2022/04/04 01:48:11;;;;;;;23.98;15.88;;;7.20;99.90;;;7.50;80.83;101485.06;5074844;28;20052;-68
2022/04/04 01:50:41;;;;;;;26.27;16.50;;;7.30;99.90;;;7.55;80.68;101475.47;5076211;28;20052;-68
2022/04/04 01:53:29;;;;;;;26.27;15.13;;;7.30;99.90;;;7.66;80.50;101473.03;5075723;28;20044;-67
2022/04/04 01:56:03;;;;;;;23.45;14.85;;;7.30;99.90;;;7.48;80.80;101465.72;5075981;28;20462;-67
2022/04/04 01:58:32;;;;;;;24.50;14.77;;;7.30;99.90;;;7.55;80.65;101472.84;5075828;28;20048;-68
2022/04/04 02:01:02;;;;;;;19.40;14.10;;;7.30;99.90;;;7.57;80.44;101463.22;5075569;28;20165;-67
2022/04/04 02:03:32;;;;;;;31.13;15.98;;;7.30;99.90;;;7.56;80.69;101453.59;5075585;28;20046;-67
2022/04/04 02:06:02;;;;;;;27.13;15.38;;;7.30;99.90;;;7.59;80.89;101461.50;5075291;28;20045;-67
2022/04/04 02:08:31;;;;;;;25.83;14.73;;;7.30;99.90;;;7.52;80.54;101437.69;5075500;28;20040;-68
2022/04/04 02:11:02;;;;;;;21.80;15.65;;;7.30;99.90;;;7.58;80.58;101433.44;5075712;28;20091;-68
2022/04/04 02:13:30;;;;;;;27.25;15.30;;;7.40;99.90;;;7.43;80.87;101422.66;5075378;28;20452;-68
2022/04/04 02:16:02;;;;;;;25.83;15.73;;;7.30;99.90;;;7.60;80.95;101425.56;5074320;28;20075;-68
2022/04/04 02:18:32;;;;;;;29.35;16.45;;;7.30;99.90;;;7.61;81.16;101419.41;5075486;28;20090;-68
2022/04/04 02:21:02;;;;;;;25.40;16.10;;;7.30;99.90;;;7.59;81.02;101418.53;5075197;28;20049;-68
2022/04/04 02:23:31;;;;;;;23.65;15.50;;;7.30;99.90;;;7.39;81.55;101394.50;5075805;28;20040;-68
2022/04/04 02:26:01;;;;;;;24.73;17.40;;;7.30;99.90;;;7.57;81.53;101407.97;5075114;28;20394;-68
2022/04/04 02:28:30;;;;;;;28.45;16.67;;;7.30;99.90;;;7.64;81.54;101403.69;5075158;28;20105;-68
2022/04/04 02:30:59;;;;;;;25.77;16.13;;;7.30;99.90;;;7.61;81.60;101396.63;5074982;28;20068;-67
2022/04/04 02:33:27;;;;;;;25.08;16.25;;;7.30;99.90;;;7.60;81.82;101380.81;5090840;28;20071;-68
2022/04/04 02:35:56;;;;;;;26.30;17.67;;;7.30;99.90;;;7.63;81.60;101371.19;5074874;28;20123;-68
2022/04/04 02:38:27;;;;;;;27.02;16.95;;;7.40;99.90;;;7.65;81.73;101376.47;5074800;28;20102;-68
2022/04/04 02:40:59;;;;;;;24.27;17.63;;;7.30;99.90;;;7.67;81.54;101372.13;5074895;28;20044;-68
2022/04/04 02:43:28;;;;;;;29.67;16.85;;;7.40;99.90;;;7.73;81.44;101375.75;5074851;28;20449;-68
2022/04/04 02:45:56;;;;;;;30.90;16.92;;;7.40;99.90;;;7.64;81.50;101365.09;5074752;28;20071;-68
2022/04/04 02:48:25;;;;;;;24.70;16.35;;;7.50;99.90;;;7.72;81.78;101363.47;5074623;28;20123;-68
2022/04/04 02:50:53;;;;;;;25.80;17.35;;;7.50;99.90;;;7.72;81.54;101342.41;5075228;28;20135;-68
2022/04/04 02:53:22;;;;;;;28.75;18.20;;;7.50;99.90;;;7.70;81.40;101332.69;5075110;28;20067;-67
2022/04/04 02:58:38;;;;;;;27.33;16.38;;;7.50;99.90;;;7.88;81.52;101339.09;5074683;28;20433;-68
2022/04/04 03:01:08;;;;;;;27.70;16.45;;;7.60;99.90;;;7.87;81.13;101318.91;5074727;28;20040;-68
2022/04/04 03:03:37;;;;;;;28.20;16.73;;;7.60;99.90;;;7.82;81.41;101317.09;5074422;28;20098;-68
2022/04/04 03:06:06;;;;;;;28.88;17.25;;;7.60;99.90;;;7.17;81.03;101179.28;5074293;28;20038;-68
2022/04/04 03:08:36;;;;;;;31.02;16.77;;;7.60;99.90;;;7.93;80.92;101310.22;5074715;28;20405;-68
2022/04/04 03:11:04;;;;;;;29.25;18.02;;;7.60;99.90;;;7.95;81.23;101292.69;5074294;28;20047;-67
2022/04/04 03:13:33;;;;;;;28.85;16.77;;;7.70;99.90;;;7.89;81.21;101282.94;5074443;28;20072;-68
2022/04/04 03:16:03;;;;;;;30.00;16.42;;;7.70;99.90;;;7.99;80.94;101289.22;5074070;28;20045;-68
2022/04/04 03:18:33;;;;;;;33.70;17.83;;;7.70;99.90;;;7.92;80.59;101267.16;5073477;28;20432;-68
2022/04/04 03:21:03;;;;;;;23.25;16.10;;;7.70;99.90;;;7.92;80.96;101276.81;5073084;28;20502;-69
2022/04/04 03:23:33;;;;;;;27.17;17.70;;;7.70;99.90;;;7.97;81.12;101285.69;5073988;28;20474;-69
2022/04/04 03:26:02;;;;;;;25.02;15.98;;;7.70;99.90;;;7.99;81.07;101274.28;5073966;28;20402;-69
2022/04/04 03:28:30;;;;;;;23.42;16.77;;;7.70;99.90;;;7.38;80.57;101155.00;5073893;28;20040;-69
2022/04/04 03:30:59;;;;;;;24.48;16.60;;;7.80;99.90;;;8.05;80.86;101268.22;5073800;28;20098;-69
2022/04/04 03:33:28;;;;;;;24.80;16.25;;;7.70;99.90;;;8.08;80.59;101266.50;5072809;28;20135;-69
2022/04/04 03:35:58;;;;;;;25.58;15.10;;;7.80;99.90;;;8.10;80.11;101283.22;5074051;28;20097;-68
2022/04/04 03:38:27;;;;;;;26.67;17.60;;;7.80;99.90;;;8.08;80.08;101248.06;5074173;28;20447;-68
2022/04/04 03:40:56;;;;;;;24.23;14.98;;;7.80;99.90;;;8.04;79.87;101238.34;5073650;28;20078;-68
2022/04/04 03:43:25;;;;;;;30.25;17.20;;;7.80;99.90;;;7.97;79.98;101236.53;5073568;28;20064;-68
2022/04/04 03:45:53;;;;;;;25.52;17.00;;;7.70;99.90;;;8.05;79.67;101221.66;5073557;28;20041;-68
2022/04/04 03:48:22;;;;;;;30.50;16.60;;;7.80;99.90;;;8.02;79.64;101226.03;5073508;28;20041;-68
2022/04/04 03:50:54;;;;;;;22.35;15.65;;;7.70;99.90;;;8.01;79.57;101219.88;5072560;28;20053;-68
2022/04/04 03:53:23;;;;;;;27.25;15.73;;;7.70;99.90;;;8.00;79.69;101202.31;5074059;28;20098;-67
2022/04/04 03:55:53;;;;;;;29.23;16.80;;;7.70;99.90;;;8.00;79.41;101198.78;5072416;28;20044;-67
2022/04/04 03:58:21;;;;;;;25.65;15.27;;;7.70;99.90;;;8.03;79.45;101193.56;5073350;28;20456;-68
2022/04/04 04:00:50;;;;;;;30.52;15.82;;;7.70;99.90;;;8.03;79.16;101188.28;5073494;28;20500;-68
2022/04/04 04:03:18;;;;;;;21.67;14.48;;;7.80;99.90;;;8.04;78.97;101190.94;5073851;28;20090;-68
2022/04/04 04:05:47;;;;;;;25.25;14.45;;;7.80;99.90;;;7.93;79.03;101174.16;5072278;28;20509;-76
2022/04/04 04:08:17;;;;;;;25.40;13.18;;;7.70;99.90;;;8.05;79.04;101187.44;5089135;28;20052;-69
2022/04/04 04:10:45;;;;;;;22.00;14.57;;;7.70;99.90;;;7.99;78.85;101179.44;5072158;28;20053;-69
2022/04/04 04:13:14;;;;;;;21.20;13.73;;;7.70;99.90;;;8.05;78.57;101168.13;5072860;28;20622;-70
2022/04/04 04:15:43;;;;;;;21.85;14.23;;;7.80;99.90;;;8.09;78.41;101167.28;5073198;28;20087;-69
2022/04/04 04:18:11;;;;;;;22.13;14.10;;;7.80;99.90;;;8.03;78.24;101169.88;5073290;28;20048;-70
2022/04/04 04:20:39;;;;;;;25.70;14.77;;;7.80;99.90;;;8.03;78.08;101154.06;5073051;28;20127;-68
2022/04/04 04:23:09;;;;;;;22.05;14.88;;;7.70;99.90;;;8.02;77.91;101165.44;5073334;28;20474;-69
2022/04/04 04:25:39;;;;;;;23.23;14.77;;;7.70;99.90;;;8.02;77.94;101145.25;5073299;28;20053;-68
2022/04/04 04:28:09;;;;;;;22.27;14.02;;;7.80;99.90;;;7.92;78.25;101135.50;5073025;28;20041;-68
2022/04/04 04:30:38;;;;;;;20.45;14.48;;;7.70;99.90;;;8.03;78.03;101139.09;5073252;28;20044;-68
2022/04/04 04:33:07;;;;;;;23.67;13.90;;;7.70;99.90;;;7.88;77.77;101123.16;5072222;28;20036;-69
2022/04/04 04:35:36;;;;;;;20.45;13.85;;;7.70;99.90;;;7.90;77.53;101128.44;5072946;28;20037;-69
2022/04/04 04:38:04;;;;;;;22.00;14.43;;;7.70;99.90;;;7.95;77.48;101118.84;5073260;28;20095;-68
2022/04/04 04:40:33;;;;;;;20.80;13.80;;;7.60;99.90;;;7.92;77.70;101119.69;5072828;28;20071;-68
2022/04/04 04:43:03;;;;;;;22.98;14.05;;;7.70;99.90;;;7.94;77.78;101103.91;5072812;28;20040;-69
2022/04/04 04:45:31;;;;;;;25.02;14.70;;;7.70;99.90;;;7.89;77.71;101102.97;5073256;28;20556;-68
2022/04/04 04:48:00;;;;;;;24.30;14.75;;;7.60;99.90;;;7.84;77.35;101102.94;5072896;28;20122;-69
2022/04/04 04:50:29;;;;;;;20.17;13.88;;;7.60;99.90;;;7.83;77.39;101097.66;5072606;28;20049;-69
2022/04/04 04:52:58;;;;;;;25.17;14.77;;;7.60;99.90;;;7.88;77.08;101074.88;5073094;28;20131;-68
2022/04/04 04:55:28;;;;;;;19.88;13.73;;;7.60;99.90;;;7.91;77.02;101074.91;5073005;28;20051;-68
2022/04/04 04:57:56;;;;;;;21.33;14.25;;;7.60;99.90;;;7.82;77.07;101062.53;5072775;28;20408;-69
2022/04/04 05:00:28;;;;;;;21.08;14.40;;;7.60;99.90;;;7.70;77.03;101065.06;5073051;28;20044;-69
2022/04/04 05:05:46;;;;;;;20.60;14.35;;;7.50;99.90;;;7.51;77.15;101015.72;5072745;28;20530;-68
2022/04/04 05:08:14;;;;;;;24.23;14.83;;;7.50;99.90;;;7.71;77.31;101035.22;5072983;28;20044;-69
2022/04/04 05:10:43;;;;;;;20.77;14.15;;;7.50;99.90;;;7.69;77.04;101043.97;5073214;28;20044;-68
2022/04/04 05:13:11;;;;;;;23.55;14.70;;;7.40;99.90;;;7.73;76.99;101053.66;5072642;28;20100;-69
2022/04/04 05:15:41;;;;;;;23.58;14.85;;;7.50;99.90;;;7.47;76.71;100998.13;5072618;28;20068;-68
2022/04/04 05:18:10;;;;;;;24.45;14.88;;;7.50;99.90;;;7.72;77.02;101030.84;5073153;28;20048;-68
2022/04/04 05:20:38;;;;;;;22.27;15.70;;;7.50;99.90;;;7.63;77.02;101002.69;5072693;28;20041;-68
2022/04/04 05:23:07;;;;;;;19.52;15.38;;;7.50;99.90;;;7.70;76.63;101020.31;5072432;28;20041;-69
2022/04/04 05:25:35;;;;;;;26.75;15.70;;;7.50;99.90;;;7.67;76.97;101022.00;5072827;28;20079;-68
2022/04/04 05:28:05;;;;;;;26.48;17.58;;;7.50;99.90;;;7.70;76.65;101027.31;5072775;28;20075;-68
2022/04/04 05:30:34;;;;;;;23.83;16.52;;;7.40;99.90;;;7.58;76.57;100995.59;5072412;28;20044;-68
2022/04/04 05:33:04;;;;;;;23.55;17.58;;;7.40;99.90;;;7.61;76.71;101014.94;5072325;28;20410;-68
2022/04/04 05:35:33;;;;;;;22.30;16.38;;;7.40;99.90;;;7.63;76.83;101000.03;5072509;28;20041;-69
2022/04/04 05:38:01;;;;;;;25.10;17.45;;;7.40;99.90;;;7.68;76.65;100993.09;5072388;28;20474;-68
2022/04/04 05:40:30;;;;;;;24.58;16.83;;;7.40;99.90;;;7.68;76.75;100995.72;5072813;28;20444;-68
2022/04/04 05:43:00;;;;;;;24.52;17.90;;;7.40;99.90;;;7.69;77.28;101001.84;5075923;28;20128;-69
2022/04/04 05:45:30;;;;;;;25.90;18.15;;;7.50;99.90;;;7.67;78.06;100983.41;5076378;28;20436;-70
2022/04/04 05:47:58;;;;;;;23.02;17.80;;;7.40;99.90;;;7.53;78.74;100971.88;5076091;28;20040;-68
2022/04/04 05:50:28;;;;;;;27.58;19.27;;;7.40;99.90;;;7.60;79.35;100986.88;5074513;28;20049;-68
2022/04/04 05:52:57;;;;;;;27.95;18.23;;;7.40;99.90;;;7.66;79.92;100997.47;5075683;28;20041;-68
2022/04/04 05:55:25;;;;;;;25.63;18.52;;;7.40;99.90;;;7.67;80.75;100986.03;5075862;28;20055;-68
2022/04/04 05:57:53;;;;;;;30.10;20.20;;;7.40;99.90;;;7.66;81.42;100994.81;5075625;28;20559;-68
2022/04/04 06:00:22;;;;;;;31.48;18.02;;;7.40;99.90;;;7.62;82.01;100986.88;5075399;28;20100;-68
2022/04/04 06:02:50;;;;;;;27.40;18.08;;;7.40;99.90;;;7.70;82.79;100977.31;5091221;28;20059;-69
2022/04/04 06:05:19;;;;;;;33.72;19.30;;;7.40;99.90;;;7.76;83.62;100980.00;5075502;28;20103;-68
2022/04/04 06:07:48;;;;;;;26.42;17.67;;;7.50;99.90;;;7.75;83.72;100967.69;5075748;28;20045;-67
2022/04/04 06:10:17;;;;;;;31.13;19.75;;;7.50;99.90;;;7.78;83.76;100958.06;5074616;28;20548;-68
2022/04/04 06:12:45;;;;;;;32.58;19.20;;;7.50;99.90;;;7.66;84.30;100957.97;5075651;28;20124;-68
2022/04/04 06:15:15;;;;;;;25.58;16.00;;;7.50;99.90;;;7.66;83.86;100923.75;5075303;28;20082;-68
2022/04/04 06:17:45;;;;;;;26.20;17.30;;;7.50;99.90;;;7.75;83.78;100936.97;5074292;28;20048;-69
2022/04/04 06:20:14;;;;;;;27.63;17.33;;;7.50;99.90;;;7.78;84.57;100938.75;5075097;28;20048;-68
2022/04/04 06:22:43;;;;;;;35.03;18.30;;;7.50;99.90;;;7.61;84.79;100895.59;5075433;28;20562;-68
2022/04/04 06:25:13;;;;;;;29.75;17.77;;;7.60;99.90;;;7.72;85.16;100934.34;5075388;28;20047;-68
2022/04/04 06:27:44;;;;;;;29.30;17.23;;;7.50;99.90;;;7.76;85.37;100936.09;5075195;28;20051;-68
2022/04/04 06:30:14;;;;;;;25.15;16.05;;;7.50;99.90;;;7.73;85.24;100925.56;5075094;28;20045;-69
2022/04/04 06:32:44;;;;;;;23.73;15.77;;;7.50;99.90;;;7.78;84.55;100912.44;5075209;28;20147;-68
2022/04/04 06:35:13;;;;;;;24.20;13.65;;;7.60;99.90;;;7.84;84.08;100928.28;5074994;28;20637;-68
2022/04/04 06:37:41;;;;;;;23.95;9.40;;;7.50;99.90;;;7.78;82.07;100912.44;5075470;28;20045;-68
2022/04/04 06:40:13;;;;;;;17.92;9.10;;;7.60;99.90;;;7.75;80.06;100923.81;5074983;28;20445;-69
2022/04/04 06:42:44;;;;;;;16.65;8.93;;;7.50;99.90;;;7.86;79.87;100916.88;5074967;28;20098;-68
2022/04/04 06:45:13;;;;;;;16.35;8.90;;;7.60;99.90;;;7.89;78.74;100910.75;5074962;28;20044;-68
2022/04/04 06:47:42;;;;;;;14.02;7.57;;;7.60;99.90;;;7.91;77.77;100904.63;5074705;28;20040;-73
2022/04/04 06:50:13;;;;;;;12.77;8.48;;;7.70;99.90;;;8.00;77.95;100898.53;5074804;28;20059;-72
2022/04/04 06:52:44;;;;;;;20.67;8.70;;;7.70;99.90;;;7.93;77.49;100902.00;5107152;28;20068;-73
2022/04/04 06:55:34;;;;;;;16.92;8.13;;;7.70;99.90;;;7.94;78.22;100903.75;5074366;28;20098;-74
2022/04/04 06:58:02;;;;;;;17.03;7.90;;;7.70;99.90;;;7.99;78.17;100902.91;5074543;28;20041;-73
2022/04/04 07:00:31;;;;;;;17.23;8.27;;;7.70;99.90;;;7.88;77.95;100896.69;5074647;28;20421;-73
2022/04/04 07:02:59;;;;;;;17.77;8.25;;;7.70;99.90;;;7.94;79.11;100886.22;5074279;28;20036;-72
2022/04/04 07:05:29;;;;;;;22.13;9.32;;;7.70;99.90;;;7.91;79.74;100898.47;5074304;28;20044;-71
2022/04/04 07:07:57;;;;;;;17.95;9.18;;;7.70;99.90;;;7.78;80.28;100876.44;5074539;28;20040;-72
2022/04/04 07:10:27;;;;;;;20.30;9.38;;;7.60;99.90;;;7.78;80.90;100865.03;5074207;28;20067;-67
2022/04/04 07:12:56;;;;;;;17.73;9.10;;;7.60;99.90;;;7.65;81.95;100894.75;5074163;28;20086;-67
2022/04/04 07:15:25;;;;;;;18.95;9.38;;;7.50;99.90;;;7.63;83.03;100867.53;5074395;28;20098;-67
2022/04/04 07:17:53;;;;;;;20.25;10.05;;;7.40;99.90;;;7.63;84.25;100872.81;5074349;28;20114;-67
2022/04/04 07:20:22;;;;;;;22.17;11.15;;;7.40;99.90;;;7.45;85.19;100865.69;5074303;28;20041;-67
2022/04/04 07:22:50;;;;;;;18.45;11.68;;;7.30;99.90;;;6.87;86.43;100771.38;5074169;28;20047;-67
2022/04/04 07:25:21;;;;;;;24.52;12.30;;;7.20;99.90;;;7.35;87.21;100855.06;5074265;28;20117;-66
2022/04/04 07:27:49;;;;;;;22.63;10.77;;;7.20;99.90;;;7.27;87.77;100852.38;5073992;28;20040;-71
2022/04/04 07:30:23;;;;;;;18.98;10.98;;;7.10;99.90;;;7.13;88.13;100822.44;5072851;28;20044;-69
2022/04/04 07:32:52;;;;;;;19.88;11.48;;;6.90;99.90;;;7.15;89.13;100831.22;5074255;28;20048;-66
2022/04/04 07:35:22;;;;;;;23.65;11.45;;;6.90;99.90;;;7.09;89.50;100831.16;5073796;28;20437;-66
2022/04/04 07:37:51;;;;;;;27.63;12.03;;;6.90;99.90;;;7.13;90.24;100825.06;5074037;28;20060;-66
2022/04/04 07:40:22;;;;;;;35.47;13.47;;;6.90;99.90;;;7.13;90.82;100825.94;5073935;28;20051;-66
2022/04/04 07:42:51;;;;;;;24.40;12.50;;;6.90;99.90;;;6.97;91.09;100779.34;5074185;28;20082;-66
2022/04/04 07:45:21;;;;;;;29.42;13.18;;;6.90;99.90;;;7.17;91.57;100825.09;5073846;28;20537;-66
2022/04/04 07:47:50;;;;;;;24.23;12.50;;;6.90;99.90;;;7.15;91.62;100810.16;5073870;28;20048;-66
2022/04/04 07:50:19;;;;;;;29.70;13.70;;;6.90;99.90;;;7.10;91.89;100794.34;5072155;28;20056;-66
2022/04/04 07:52:48;;;;;;;28.98;12.40;;;6.90;99.90;;;7.08;92.19;100769.78;5073484;28;20037;-66
2022/04/04 07:55:17;;;;;;;29.13;12.77;;;6.90;99.90;;;7.18;92.63;100778.66;5073411;28;20045;-66
2022/04/04 07:57:46;;;;;;;22.58;12.70;;;7.00;99.90;;;7.25;92.89;100809.38;5073739;28;20071;-66
2022/04/04 08:00:17;;;;;;;22.80;12.93;;;7.00;99.90;;;7.11;93.00;100746.16;5106153;28;20102;-66
2022/04/04 08:02:47;;;;;;;29.65;12.77;;;7.00;99.90;;;7.19;92.89;100793.56;5073602;28;20067;-66
2022/04/04 08:05:16;;;;;;;23.35;12.35;;;6.90;99.90;;;7.24;92.90;100768.16;5073143;28;20490;-67
2022/04/04 08:07:48;;;;;;;23.15;12.55;;;7.00;99.90;;;7.19;92.92;100777.78;5073312;28;20048;-67
2022/04/04 08:10:17;;;;;;;27.00;13.73;;;7.00;99.90;;;7.23;93.00;100761.16;5073309;28;20040;-67
2022/04/04 08:12:46;;;;;;;26.02;13.43;;;7.00;99.90;;;7.29;92.91;100769.97;5073520;28;20044;-66
2022/04/04 08:15:14;;;;;;;27.45;12.60;;;7.00;99.90;;;7.28;92.80;100759.41;5073455;28;20466;-66
2022/04/04 08:17:43;;;;;;;23.83;12.80;;;7.10;99.90;;;7.29;92.65;100777.88;5073466;28;20037;-67
2022/04/04 08:20:13;;;;;;;27.58;12.80;;;7.10;99.90;;;7.28;92.82;100765.56;5073543;28;20058;-66
2022/04/04 08:22:44;;;;;;;29.67;13.30;;;7.10;99.90;;;7.26;92.41;100751.53;5072014;28;20383;-65
2022/04/04 08:25:15;;;;;;;25.58;11.65;;;7.00;99.90;;;7.24;92.46;100757.63;5073102;28;20045;-66
2022/04/04 08:27:44;;;;;;;29.92;12.68;;;7.00;99.90;;;7.31;92.58;100756.81;5073373;28;20036;-67
2022/04/04 08:30:15;;;;;;;25.40;12.10;;;7.10;99.90;;;7.39;92.47;100741.09;5073447;28;20049;-66
2022/04/04 08:32:43;;;;;;;;;;;7.10;99.90;;;7.42;92.58;100749.88;5073417;28;20383;-66
2022/04/04 08:35:15;;;;;;;30.08;12.88;;;7.20;99.90;;;7.43;92.88;100754.28;5073279;28;19920;-66
2022/04/04 08:37:45;;;;;;;30.65;12.57;;;7.20;99.90;;;7.32;93.19;100711.22;5072250;28;20406;-66
2022/04/04 08:40:18;;;;;;;28.10;11.38;;;7.20;99.90;;;7.43;93.28;100732.34;5072904;28;20063;-66
2022/04/04 08:42:47;;;;;;;24.83;10.82;;;7.20;99.90;;;7.46;93.38;100753.41;5072987;28;20064;-66
2022/04/04 08:45:16;;;;;;;22.92;11.32;;;7.20;99.90;;;7.46;93.86;100706.03;5073373;28;20068;-66
2022/04/04 08:47:45;;;;;;;29.27;11.35;;;7.30;99.90;;;7.47;94.20;100720.97;5072828;28;20478;-67
2022/04/04 08:50:15;;;;;;;33.85;11.45;;;7.20;99.90;;;7.51;94.07;100728.00;5071452;28;20481;-67
2022/04/04 08:52:44;;;;;;;31.65;11.73;;;7.30;99.90;;;7.47;94.44;100713.94;5073095;28;20058;-67
2022/04/04 08:55:15;;;;;;;28.13;11.43;;;7.30;99.90;;;7.54;94.88;100741.16;5088334;28;20072;-67
2022/04/04 08:57:44;;;;;;;32.17;11.80;;;7.30;99.90;;;7.52;94.96;100722.75;5073100;28;20486;-68
2022/04/04 09:00:14;;;;;;;21.77;11.38;;;7.40;99.90;;;7.56;95.98;100685.06;5072661;28;20040;-68
2022/04/04 09:03:03;;;;;;;20.98;11.10;;;7.30;99.90;;;7.60;96.46;100693.84;5072935;28;20037;-68
2022/04/04 09:05:35;;;;;;;28.92;10.65;;;7.40;99.90;;;7.58;96.57;100680.69;5072707;28;20044;-68
2022/04/04 09:08:06;;;;;;;33.42;11.25;;;7.30;99.90;;;7.58;96.78;100692.94;5072723;28;20383;-68
2022/04/04 09:10:40;;;;;;;23.50;10.27;;;7.40;99.90;;;7.63;97.06;100696.47;5073024;28;20105;-68
2022/04/04 09:13:13;;;;;;;21.08;10.45;;;7.40;99.90;;;7.64;97.12;100682.44;5072908;28;20045;-68
2022/04/04 09:15:59;;;;;;;26.33;11.02;;;7.40;99.90;;;7.71;97.09;100676.31;5073257;28;20051;-68
2022/04/04 09:18:49;;;;;;;28.00;10.27;;;7.50;99.90;;;7.70;97.05;100686.00;5076481;28;20045;-69
2022/04/04 09:21:35;;;;;;;28.60;10.88;;;7.50;99.90;;;7.81;97.08;100689.53;5076409;28;20040;-69
2022/04/04 09:24:10;;;;;;;26.92;10.30;;;7.50;99.90;;;7.73;97.18;100685.09;5076888;28;20123;-69
2022/04/04 09:26:41;;;;;;;27.17;9.43;;;7.50;99.90;;;7.77;97.24;100684.25;5076359;28;20044;-69
2022/04/04 09:29:16;;;;;;;;;;;7.50;99.90;;;6.92;97.36;100520.81;5092631;28;20455;-77
2022/04/04 09:31:57;;;;;;;25.30;9.00;;;7.50;99.90;;;7.45;97.58;100631.50;5076252;28;20392;-81
2022/04/04 09:34:27;;;;;;;25.83;9.45;;;7.40;99.90;;;7.57;97.92;100655.22;5076162;28;20041;-79
2022/04/04 09:36:58;;;;;;;26.92;8.52;;;7.50;99.90;;;7.76;97.56;100649.13;5076389;28;20122;-71
2022/04/04 09:39:26;;;;;;;21.73;8.88;;;7.50;99.90;;;7.79;97.92;100664.06;5076370;28;20043;-71
2022/04/04 09:42:00;;;;;;;24.30;9.20;;;7.50;99.90;;;7.79;97.71;100664.06;5076149;28;20048;-70
2022/04/04 09:44:28;;;;;;;21.25;8.75;;;7.50;99.90;;;7.86;97.92;100671.09;5075999;28;20071;-70
2022/04/04 09:46:57;;;;;;;27.27;8.00;;;7.60;99.90;;;7.83;97.83;100661.47;5075895;28;20048;-76
2022/04/04 09:49:26;;;;;;;26.15;8.73;;;7.60;99.90;;;7.85;97.94;100649.19;5075970;28;20043;-76
2022/04/04 09:51:56;;;;;;;29.08;8.77;;;7.60;99.90;;;7.81;98.25;100651.78;5075855;28;20051;-74
2022/04/04 09:54:28;;;;;;;;;;;7.60;99.90;;;7.88;98.54;100633.38;5076253;28;20044;-73
2022/04/04 09:57:10;;;;;;;30.25;8.45;;;7.60;99.90;;;7.90;99.08;100657.97;5075799;28;19982;-74
2022/04/04 09:59:41;;;;;;;24.88;8.23;;;7.60;99.90;;;7.94;99.36;100661.47;5075805;28;20044;-74
2022/04/04 10:02:10;;;;;;;29.52;8.43;;;7.70;99.90;;;8.02;99.31;100652.75;5075852;28;20044;-78
2022/04/04 10:04:45;;;;;;;28.77;8.23;;;7.70;99.90;;;8.03;99.52;100649.22;5074609;28;20536;-79
2022/04/04 10:07:17;;;;;;;20.88;7.60;;;7.80;99.90;;;8.03;99.42;100649.22;5075530;28;20044;-78
2022/04/04 10:09:47;;;;;;;26.15;8.45;;;7.80;99.90;;;8.14;99.83;100646.63;5075532;28;20492;-79
2022/04/04 10:12:16;;;;;;;27.00;7.88;;;7.80;99.90;;;8.15;99.25;100643.97;5075691;28;20125;-73
2022/04/04 10:14:45;;;;;;;23.48;7.40;;;7.90;99.90;;;8.12;99.81;100628.19;5075668;28;20102;-72
2022/04/04 10:17:15;;;;;;;23.63;8.15;;;7.90;99.90;;;7.39;99.78;100491.16;5075624;28;20074;-75
2022/04/04 10:19:44;;;;;;;26.52;8.35;;;7.90;99.90;;;8.23;100.00;100622.91;5075389;28;20044;-75
2022/04/04 10:22:15;;;;;;;23.55;7.80;;;7.90;99.90;;;8.31;100.00;100618.56;5075171;28;20449;-78
2022/04/04 10:24:44;;;;;;;20.77;8.13;;;8.00;99.90;;;8.39;100.00;100626.47;5075258;28;20502;-72
2022/04/04 10:27:13;;;;;;;28.83;8.27;;;8.10;99.90;;;8.40;100.00;100618.56;5075360;28;20068;-75
2022/04/04 10:29:44;;;;;;;27.27;8.05;;;8.10;99.90;;;8.40;100.00;100608.00;5075134;28;20051;-76
2022/04/04 10:32:24;;;;;;;32.08;8.95;;;8.10;99.90;;;8.47;100.00;100609.78;5074034;28;20544;-74
2022/04/04 10:34:53;;;;;;;23.20;8.30;;;8.20;99.90;;;8.47;100.00;100603.63;5075116;28;20474;-84